Time;durP1;ratioP1;P1;durP2;ratioP2;P2;SDS_P1;SDS_P2;PMS_P1;PMS_P2;Temp;Humidity;BMP_temperature;BMP_pressure;BME280_temperature;BME280_humidity;BME280_pressure;Samples;Min_cycle;Max_cycle;Signal;HPM_P1;HPM_P2
2023/10/31 00:01:50;;;;;;;2.47;2.37;;;;;;;14.18;93.21;99613.84;5110675;28;20667;-66
2023/10/31 00:04:16;;;;;;;1.90;1.80;;;;;;;14.15;93.38;99613.97;5110557;28;20194;-66
2023/10/31 00:06:44;;;;;;;2.10;2.00;;;;;;;14.11;93.45;99614.19;5110526;28;20620;-66
2023/10/31 00:09:11;;;;;;;2.23;2.13;;;;;;;14.12;93.61;99608.13;5110297;28;20834;-67
2023/10/31 00:11:38;;;;;;;2.40;2.30;;;;;;;13.88;93.29;99575.63;5110730;28;20194;-66
2023/10/31 00:14:05;;;;;;;2.53;2.43;;;;;;;14.03;93.77;99614.50;5110351;28;20264;-67
2023/10/31 00:16:32;;;;;;;2.00;1.93;;;;;;;13.99;93.87;99604.38;5110318;28;20195;-66
2023/10/31 00:18:59;;;;;;;6.63;2.20;;;;;;;13.97;94.47;99606.16;5110608;28;20198;-67
2023/10/31 00:21:25;;;;;;;2.80;2.13;;;;;;;13.96;94.54;99601.91;5110238;28;20215;-67
2023/10/31 00:23:54;;;;;;;2.10;2.00;;;;;;;13.93;94.18;99600.28;5110189;28;20199;-66
2023/10/31 00:26:20;;;;;;;4.10;1.73;;;;;;;13.93;94.57;99602.88;5110291;28;20283;-66
2023/10/31 00:28:47;;;;;;;1.50;1.50;;;;;;;13.90;94.42;99599.59;5110662;28;20252;-67
2023/10/31 00:31:14;;;;;;;2.90;1.80;;;;;;;13.90;94.59;99605.56;5110557;28;20198;-67
2023/10/31 00:33:41;;;;;;;1.83;1.83;;;;;;;13.88;94.49;99601.41;5110368;28;20740;-67
2023/10/31 00:36:08;;;;;;;2.30;2.20;;;;;;;13.68;94.04;99566.97;5110754;28;20559;-67
2023/10/31 00:38:35;;;;;;;6.17;2.03;;;;;;;13.86;94.23;99598.88;5113432;28;20267;-66
2023/10/31 00:41:03;;;;;;;2.20;2.10;;;;;;;13.82;93.80;99601.66;5113700;28;20217;-67
2023/10/31 00:43:30;;;;;;;2.10;2.00;;;;;;;13.78;94.08;99600.09;5113825;28;20241;-67
2023/10/31 00:45:57;;;;;;;1.47;1.47;;;;;;;13.75;93.94;99600.22;5113687;28;20197;-67
2023/10/31 00:48:23;;;;;;;1.87;1.77;;;;;;;13.72;94.03;99595.19;5114533;27;20198;-66
2023/10/31 00:50:50;;;;;;;2.13;2.03;;;;;;;13.70;93.94;99591.84;5113954;28;20602;-66
2023/10/31 00:53:17;;;;;;;7.33;2.13;;;;;;;13.66;94.42;99591.97;5113422;27;20204;-66
2023/10/31 00:55:44;;;;;;;4.13;1.60;;;;;;;13.63;93.95;99589.47;5113894;28;20669;-66
2023/10/31 00:58:12;;;;;;;1.57;1.47;;;;;;;13.61;94.20;99583.56;5113207;28;20592;-66
2023/10/31 01:00:40;;;;;;;1.87;1.77;;;;;;;13.57;94.40;99579.41;5111397;28;20220;-67
2023/10/31 01:03:07;;;;;;;1.53;1.43;;;;;;;13.54;94.65;99583.84;5113291;28;20295;-66
2023/10/31 01:05:33;;;;;;;1.43;1.43;;;;;;;13.42;95.27;99562.00;5113115;28;20676;-67
2023/10/31 01:08:00;;;;;;;1.60;1.60;;;;;;;13.48;95.25;99577.22;5112211;28;20202;-66
2023/10/31 01:10:27;;;;;;;1.77;1.67;;;;;;;13.46;95.49;99584.16;5114524;27;20278;-67
2023/10/31 01:12:53;;;;;;;1.13;1.13;;;;;;;13.37;95.45;99568.22;5114013;27;20248;-67
2023/10/31 01:15:21;;;;;;;1.30;1.30;;;;;;;13.40;95.61;99579.25;5113497;28;20198;-67
2023/10/31 01:17:48;;;;;;;1.27;1.27;;;;;;;13.30;95.14;99566.78;5113016;28;20327;-66
2023/10/31 01:20:15;;;;;;;1.40;1.40;;;;;;;13.30;95.58;99577.09;5111829;28;20213;-67
2023/10/31 01:22:42;;;;;;;1.27;1.27;;;;;;;13.23;95.80;99573.91;5113161;28;20696;-67
2023/10/31 01:25:10;;;;;;;9.53;1.80;;;;;;;13.16;96.48;99575.03;5112003;28;20191;-67
2023/10/31 01:27:37;;;;;;;1.03;1.03;;;;;;;13.14;96.66;99581.97;5113136;28;20200;-67
2023/10/31 01:30:04;;;;;;;1.83;1.73;;;;;;;13.02;96.95;99562.63;5112537;28;20200;-67
2023/10/31 01:32:32;;;;;;;2.70;2.60;;;;;;;13.06;96.99;99568.50;5111841;28;20623;-67
2023/10/31 01:34:59;;;;;;;4.03;2.47;;;;;;;12.98;97.30;99576.53;5112973;28;20202;-66
2023/10/31 01:37:26;;;;;;;3.13;1.67;;;;;;;12.93;97.45;99568.13;5112891;28;20196;-66
2023/10/31 01:39:53;;;;;;;3.20;2.90;;;;;;;12.91;97.51;99569.94;5114869;27;20619;-67
2023/10/31 01:42:19;;;;;;;2.17;1.83;;;;;;;12.89;97.67;99569.13;5112635;28;20190;-67
2023/10/31 01:44:46;;;;;;;2.00;1.90;;;;;;;12.89;98.00;99565.75;5108929;28;20191;-67
2023/10/31 01:47:13;;;;;;;5.80;1.60;;;;;;;12.77;98.30;99553.31;5112241;28;23086;-66
2023/10/31 01:49:42;;;;;;;1.70;1.70;;;;;;;12.88;98.11;99569.22;5111280;28;20191;-66
2023/10/31 01:52:09;;;;;;;1.50;1.40;;;;;;;12.89;97.82;99565.75;5112802;28;20191;-67
2023/10/31 01:54:36;;;;;;;1.60;1.50;;;;;;;12.80;97.67;99555.78;5112609;28;20623;-66
2023/10/31 01:57:05;;;;;;;1.93;1.83;;;;;;;12.85;97.23;99564.19;5112356;28;20251;-66
2023/10/31 01:59:32;;;;;;;1.87;1.87;;;;;;;12.86;97.01;99560.72;5112401;28;20283;-67
2023/10/31 02:02:01;;;;;;;1.30;1.30;;;;;;;12.81;96.82;99562.59;5112361;28;20264;-67
2023/10/31 02:04:28;;;;;;;2.07;1.80;;;;;;;12.80;96.92;99560.91;5112304;28;20271;-67
2023/10/31 02:06:56;;;;;;;2.37;1.37;;;;;;;12.77;96.86;99556.72;5112161;28;20194;-66
2023/10/31 02:09:26;;;;;;;1.20;1.20;;;;;;;12.75;97.06;99553.38;5112124;27;20229;-66
2023/10/31 02:11:53;;;;;;;1.40;1.40;;;;;;;12.74;97.10;99548.28;5113343;27;20188;-66
2023/10/31 02:14:19;;;;;;;1.93;1.80;;;;;;;12.73;96.91;99549.19;5112003;28;20192;-66
2023/10/31 02:16:46;;;;;;;1.60;1.50;;;;;;;12.69;96.87;99552.78;5112051;28;20195;-67
2023/10/31 02:19:17;;;;;;;1.70;1.60;;;;;;;12.69;96.63;99550.19;5112090;28;20566;-67
2023/10/31 02:21:45;;;;;;;2.53;1.60;;;;;;;12.69;96.31;99550.19;5111841;28;20264;-66
2023/10/31 02:24:12;;;;;;;1.57;1.50;;;;;;;12.66;95.90;99548.56;5112014;28;20570;-66
2023/10/31 02:26:38;;;;;;;2.23;2.00;;;;;;;12.64;96.08;99561.47;5112102;28;20262;-66
2023/10/31 02:29:06;;;;;;;1.80;1.70;;;;;;;12.53;96.54;99543.03;5111758;28;20206;-66
2023/10/31 02:31:33;;;;;;;1.77;1.67;;;;;;;12.57;96.06;99560.00;5111703;28;20612;-67
2023/10/31 02:34:00;;;;;;;1.43;1.33;;;;;;;12.59;95.99;99568.53;5111345;28;20206;-66
2023/10/31 02:36:26;;;;;;;2.17;2.07;;;;;;;12.56;96.29;99563.50;5111851;28;20248;-67
2023/10/31 02:38:55;;;;;;;1.07;1.07;;;;;;;12.54;96.40;99565.28;5111790;28;20644;-67
2023/10/31 02:41:23;;;;;;;1.37;1.37;;;;;;;12.52;96.29;99561.09;5112271;27;20310;-67
2023/10/31 02:43:50;;;;;;;1.73;1.73;;;;;;;12.51;96.64;99567.09;5111340;27;20191;-67
2023/10/31 02:46:17;;;;;;;6.47;2.27;;;;;;;12.48;96.00;99569.78;5113214;28;20248;-66
2023/10/31 02:48:44;;;;;;;3.30;2.93;;;;;;;12.43;96.56;99562.25;5111498;28;20578;-66
2023/10/31 02:51:10;;;;;;;2.80;2.67;;;;;;;12.38;96.61;99561.56;5110280;28;20199;-66
2023/10/31 02:53:37;;;;;;;1.67;1.57;;;;;;;12.37;96.84;99566.78;5111019;28;20243;-67
2023/10/31 02:56:06;;;;;;;1.70;1.60;;;;;;;12.35;96.89;99564.25;5111388;28;20198;-66
2023/10/31 02:58:33;;;;;;;1.43;1.43;;;;;;;12.37;97.15;99577.91;5111475;28;20196;-67
2023/10/31 03:00:59;;;;;;;4.93;2.10;;;;;;;12.33;97.15;99565.19;5110578;28;20273;-66
2023/10/31 03:03:26;;;;;;;1.23;1.23;;;;;;;12.32;97.08;99569.47;5111065;28;20556;-67
2023/10/31 03:05:53;;;;;;;2.47;2.20;;;;;;;12.27;97.45;99566.25;5111092;28;20253;-66
2023/10/31 03:08:20;;;;;;;1.53;1.53;;;;;;;12.25;97.10;99569.75;5110083;28;20632;-66
2023/10/31 03:10:51;;;;;;;1.53;1.43;;;;;;;12.21;97.23;99571.59;5111190;27;20313;-67
2023/10/31 03:13:19;;;;;;;2.53;2.10;;;;;;;12.19;96.83;99563.09;5110868;28;20194;-66
2023/10/31 03:15:47;;;;;;;1.97;1.87;;;;;;;12.03;97.24;99546.50;5108732;28;20202;-66
2023/10/31 03:18:15;;;;;;;1.10;1.10;;;;;;;12.13;97.28;99563.28;5111100;28;20191;-66
2023/10/31 03:20:41;;;;;;;1.80;1.80;;;;;;;12.03;97.81;99556.78;5111419;28;20222;-66
2023/10/31 03:23:08;;;;;;;1.73;1.63;;;;;;;12.10;97.60;99563.41;5111146;28;20259;-66
2023/10/31 03:25:35;;;;;;;3.43;1.90;;;;;;;12.04;97.60;99568.75;5111367;28;20207;-66
2023/10/31 03:28:02;;;;;;;1.73;1.63;;;;;;;11.99;97.56;99570.63;5111125;28;20662;-67
2023/10/31 03:30:30;;;;;;;1.40;1.40;;;;;;;11.92;97.91;99564.03;5110996;28;20723;-66
2023/10/31 03:32:57;;;;;;;1.80;1.70;;;;;;;11.87;97.77;99555.63;5109039;28;20195;-67
2023/10/31 03:35:24;;;;;;;1.30;1.30;;;;;;;11.83;97.87;99564.31;5110837;28;20635;-66
2023/10/31 03:37:50;;;;;;;1.20;1.20;;;;;;;11.79;98.24;99560.19;5111232;28;20244;-66
2023/10/31 03:40:17;;;;;;;2.47;2.37;;;;;;;11.73;98.48;99568.91;5107905;28;20263;-66
2023/10/31 03:42:44;;;;;;;2.07;1.43;;;;;;;11.68;98.27;99569.91;5111209;28;20648;-66
2023/10/31 03:45:11;;;;;;;1.40;1.40;;;;;;;11.66;98.07;99562.28;5110986;28;20199;-67
2023/10/31 03:47:39;;;;;;;1.80;1.70;;;;;;;11.58;98.33;99562.50;5111380;28;20199;-67
2023/10/31 03:50:07;;;;;;;2.00;1.40;;;;;;;11.59;98.47;99571.91;5110805;28;20202;-66
2023/10/31 03:52:33;;;;;;;2.37;2.17;;;;;;;11.57;98.76;99567.66;5113617;28;20252;-66
2023/10/31 03:55:00;;;;;;;2.17;2.07;;;;;;;11.54;98.55;99568.63;5111193;28;20202;-66
2023/10/31 03:57:27;;;;;;;1.57;1.57;;;;;;;11.52;98.49;99567.00;5108208;28;20257;-66
2023/10/31 03:59:53;;;;;;;1.30;1.30;;;;;;;11.46;98.67;99560.34;5113663;28;20205;-66
2023/10/31 04:02:20;;;;;;;1.67;1.67;;;;;;;11.35;99.59;99562.38;5110528;28;20214;-67
2023/10/31 04:04:48;;;;;;;1.80;1.70;;;;;;;11.36;99.54;99563.22;5111013;28;20199;-66
2023/10/31 04:07:15;;;;;;;1.03;1.03;;;;;;;11.35;99.53;99570.06;5110640;28;20201;-66
2023/10/31 04:09:43;;;;;;;1.20;1.20;;;;;;;11.27;99.98;99548.94;5109415;28;20230;-67
2023/10/31 04:12:10;;;;;;;2.23;2.03;;;;;;;11.34;100.00;99560.69;5114005;28;20658;-66
2023/10/31 04:14:36;;;;;;;2.40;2.20;;;;;;;11.33;99.88;99564.16;5114731;28;20194;-66
2023/10/31 04:17:03;;;;;;;3.07;2.97;;;;;;;11.31;100.00;99560.78;5114494;28;20199;-67
2023/10/31 04:19:30;;;;;;;2.83;2.73;;;;;;;11.27;100.00;99554.09;5114654;28;20203;-66
2023/10/31 04:21:58;;;;;;;4.90;2.70;;;;;;;11.28;100.00;99567.72;5114467;28;20214;-66
2023/10/31 04:24:24;;;;;;;3.73;3.53;;;;;;;11.26;100.00;99557.53;5114666;28;20199;-66
2023/10/31 04:26:51;;;;;;;3.30;3.10;;;;;;;11.26;100.00;99549.81;5114040;27;20195;-66
2023/10/31 04:29:18;;;;;;;1.87;1.80;;;;;;;11.24;100.00;99554.19;5114703;28;20247;-66
2023/10/31 04:31:44;;;;;;;2.30;2.20;;;;;;;11.26;100.00;99549.81;5114677;27;20199;-66
2023/10/31 04:34:12;;;;;;;1.90;1.90;;;;;;;11.21;100.00;99558.56;5114094;28;20218;-66
2023/10/31 04:36:38;;;;;;;5.53;1.97;;;;;;;11.18;100.00;99554.34;5113768;28;20205;-66
2023/10/31 04:39:06;;;;;;;2.60;2.40;;;;;;;11.15;100.00;99554.44;5113999;28;20194;-66
2023/10/31 04:41:33;;;;;;;2.20;2.00;;;;;;;11.14;100.00;99546.78;5114168;27;20235;-67
2023/10/31 04:44:00;;;;;;;3.60;3.33;;;;;;;11.10;100.00;99540.91;5112910;28;20194;-67
2023/10/31 04:46:27;;;;;;;2.57;2.37;;;;;;;11.08;100.00;99540.13;5114598;28;20623;-66
2023/10/31 04:48:54;;;;;;;2.77;2.33;;;;;;;11.06;100.00;99542.72;5112758;28;20237;-67
2023/10/31 04:51:21;;;;;;;3.67;2.77;;;;;;;11.03;100.00;99534.28;5113375;28;20245;-67
2023/10/31 04:53:48;;;;;;;4.77;3.27;;;;;;;11.06;100.00;99534.19;5114060;28;20602;-67
2023/10/31 04:56:17;;;;;;;2.30;2.20;;;;;;;11.05;100.00;99538.47;5113782;28;20666;-67
2023/10/31 04:58:43;;;;;;;2.80;2.70;;;;;;;11.05;100.00;99542.75;5113466;28;20218;-67
2023/10/31 05:01:11;;;;;;;2.77;2.63;;;;;;;11.04;100.00;99531.69;5113401;28;20211;-66
2023/10/31 05:03:37;;;;;;;2.63;2.43;;;;;;;11.01;100.00;99526.66;5113985;28;20199;-67
2023/10/31 05:06:05;;;;;;;2.63;2.53;;;;;;;11.03;100.00;99530.00;5113581;28;20644;-67
2023/10/31 05:08:31;;;;;;;2.10;2.00;;;;;;;11.00;100.00;99529.25;5113356;28;20195;-67
2023/10/31 05:10:59;;;;;;;3.47;3.17;;;;;;;11.01;100.00;99530.94;5113279;28;20704;-67
2023/10/31 05:13:27;;;;;;;2.17;2.07;;;;;;;10.98;100.00;99525.91;5112913;28;20271;-67
2023/10/31 05:15:54;;;;;;;1.83;1.73;;;;;;;10.99;100.00;99523.28;5113514;28;20735;-67
2023/10/31 05:18:21;;;;;;;5.03;1.80;;;;;;;10.95;100.00;99520.84;5113473;28;20199;-67
2023/10/31 05:20:48;;;;;;;1.97;1.87;;;;;;;10.84;100.00;99504.94;5113357;28;20191;-67
2023/10/31 05:23:15;;;;;;;1.50;1.40;;;;;;;10.99;100.00;99532.69;5112617;28;20253;-66
2023/10/31 05:25:41;;;;;;;1.90;1.80;;;;;;;11.00;100.00;99540.34;5113436;28;20195;-67
2023/10/31 05:28:08;;;;;;;2.07;1.97;;;;;;;11.03;100.00;99541.97;5112978;28;20195;-67
2023/10/31 05:30:36;;;;;;;1.77;1.67;;;;;;;11.02;100.00;99543.69;5111804;28;20203;-67
2023/10/31 05:33:03;;;;;;;2.57;1.47;;;;;;;11.07;100.00;99553.84;5112834;28;20199;-67
2023/10/31 05:35:30;;;;;;;1.47;1.47;;;;;;;11.06;100.00;99554.72;5113673;28;20199;-67
2023/10/31 05:37:57;;;;;;;2.03;1.93;;;;;;;11.08;100.00;99563.22;5113097;28;20191;-67
2023/10/31 05:40:25;;;;;;;1.40;1.30;;;;;;;11.10;100.00;99560.59;5112940;28;20198;-67
2023/10/31 05:42:52;;;;;;;3.13;1.23;;;;;;;11.04;100.00;99551.38;5110148;28;20322;-66
2023/10/31 05:45:18;;;;;;;1.80;1.70;;;;;;;11.10;100.00;99566.56;5113126;28;20202;-67
2023/10/31 05:47:46;;;;;;;1.67;1.57;;;;;;;11.04;100.00;99559.06;5113073;28;20199;-67
2023/10/31 05:50:13;;;;;;;1.77;1.77;;;;;;;11.11;100.00;99573.41;5113003;28;20207;-67
2023/10/31 05:52:40;;;;;;;1.90;1.90;;;;;;;11.15;100.00;99585.22;5112702;28;20244;-67
2023/10/31 05:55:08;;;;;;;1.83;1.57;;;;;;;11.19;100.00;99580.84;5112831;28;20199;-67
2023/10/31 05:57:34;;;;;;;1.80;1.70;;;;;;;11.22;100.00;99581.59;5112274;28;20207;-67
2023/10/31 06:00:01;;;;;;;6.60;3.10;;;;;;;11.25;100.00;99586.63;5113286;27;20616;-67
2023/10/31 06:02:29;;;;;;;1.63;1.53;;;;;;;11.28;100.00;99586.53;5111678;28;20214;-67
2023/10/31 06:04:57;;;;;;;1.93;1.83;;;;;;;11.31;100.00;99591.56;5112680;27;20191;-67
2023/10/31 06:07:24;;;;;;;6.60;1.47;;;;;;;11.37;100.00;99588.81;5112503;27;20240;-67
2023/10/31 06:09:51;;;;;;;3.20;2.37;;;;;;;11.27;100.00;99569.47;5111839;27;20242;-67
2023/10/31 06:12:17;;;;;;;2.10;2.00;;;;;;;11.41;100.00;99597.28;5113144;27;20191;-66
2023/10/31 06:14:44;;;;;;;1.93;1.93;;;;;;;11.42;100.00;99584.41;5107914;28;20632;-66
2023/10/31 06:17:11;;;;;;;2.30;2.20;;;;;;;11.43;100.00;99585.25;5104430;27;20256;-67
2023/10/31 06:19:38;;;;;;;1.60;1.50;;;;;;;11.45;100.00;99588.59;5109462;28;20206;-67
2023/10/31 06:22:06;;;;;;;2.27;2.07;;;;;;;11.47;100.00;99585.09;5106939;28;20218;-67
2023/10/31 06:24:33;;;;;;;2.07;1.97;;;;;;;11.50;100.00;99584.19;5109141;28;20252;-66
2023/10/31 06:27:00;;;;;;;2.43;2.30;;;;;;;11.55;100.00;99585.72;5107766;28;20211;-67
2023/10/31 06:29:26;;;;;;;2.07;2.07;;;;;;;11.57;100.00;99589.06;5105856;28;20240;-67
2023/10/31 06:31:53;;;;;;;2.00;1.93;;;;;;;11.65;100.00;99586.25;5108899;28;20628;-67
2023/10/31 06:34:20;;;;;;;2.10;2.00;;;;;;;11.70;100.00;99589.53;5110446;28;20194;-67
2023/10/31 06:36:46;;;;;;;1.93;1.93;;;;;;;11.67;100.00;99579.34;5107632;28;20578;-67
2023/10/31 06:39:14;;;;;;;2.20;1.93;;;;;;;11.83;100.00;99595.13;5109263;28;20195;-67
2023/10/31 06:41:42;;;;;;;1.60;1.50;;;;;;;11.89;100.00;99598.34;5108998;28;20214;-67
2023/10/31 06:44:08;;;;;;;1.60;1.50;;;;;;;11.95;100.00;99592.19;5108571;27;20199;-67
2023/10/31 06:46:35;;;;;;;1.70;1.60;;;;;;;12.02;100.00;99598.78;5108904;28;20636;-67
2023/10/31 06:49:02;;;;;;;1.80;1.50;;;;;;;12.07;100.00;99602.91;5108270;28;20202;-67
2023/10/31 06:51:29;;;;;;;5.83;1.50;;;;;;;12.14;100.00;99589.84;5107233;28;20255;-67
2023/10/31 06:53:55;;;;;;;5.43;2.53;;;;;;;12.18;100.00;99588.84;5109057;28;20251;-67
2023/10/31 06:56:23;;;;;;;3.17;1.97;;;;;;;12.24;100.00;99583.50;5108128;28;20207;-67
2023/10/31 06:58:50;;;;;;;2.07;1.97;;;;;;;12.28;100.00;99587.66;5109148;28;20274;-67
2023/10/31 07:01:19;;;;;;;1.93;1.80;;;;;;;12.34;100.00;99583.13;5107491;28;20202;-67
2023/10/31 07:03:45;;;;;;;1.83;1.77;;;;;;;12.45;100.00;99578.47;5110673;28;20199;-68
2023/10/31 07:06:12;;;;;;;1.53;1.43;;;;;;;12.50;100.00;99573.97;5109682;28;20203;-67
2023/10/31 07:08:39;;;;;;;2.30;1.87;;;;;;;12.58;100.00;99577.13;5105019;28;20255;-67
2023/10/31 07:11:06;;;;;;;1.90;1.80;;;;;;;12.61;100.00;99574.44;5109331;28;20286;-67
2023/10/31 07:13:34;;;;;;;2.10;2.00;;;;;;;12.74;100.00;99566.28;5109040;28;20572;-67
2023/10/31 07:16:01;;;;;;;2.20;2.00;;;;;;;12.82;100.00;99560.00;5109870;28;20195;-67
2023/10/31 07:18:28;;;;;;;2.27;2.20;;;;;;;12.92;100.00;99560.50;5109210;28;20735;-67
2023/10/31 07:20:55;;;;;;;5.50;2.17;;;;;;;13.06;100.00;99565.94;5109835;28;20255;-68
2023/10/31 07:23:22;;;;;;;1.63;1.60;;;;;;;13.21;100.00;99568.00;5108159;28;20223;-67
2023/10/31 07:25:48;;;;;;;4.67;2.20;;;;;;;13.37;100.00;99558.78;5108830;28;20208;-67
2023/10/31 07:28:17;;;;;;;2.00;2.00;;;;;;;13.59;100.00;99559.59;5109104;28;20207;-67
2023/10/31 07:30:47;;;;;;;2.87;2.63;;;;;;;13.79;100.00;99566.53;5109267;28;20302;-67
2023/10/31 07:33:14;;;;;;;2.27;2.17;;;;;;;14.03;100.00;99557.78;5109386;28;20201;-68
2023/10/31 07:35:40;;;;;;;3.53;1.90;;;;;;;14.26;100.00;99558.56;5110186;28;20236;-67
2023/10/31 07:38:07;;;;;;;2.23;2.13;;;;;;;14.50;100.00;99555.81;5109571;28;20197;-67
2023/10/31 07:40:34;;;;;;;2.77;1.80;;;;;;;14.78;100.00;99549.41;5108997;28;20244;-67
2023/10/31 07:43:01;;;;;;;2.10;1.90;;;;;;;15.00;100.00;99539.78;5109179;28;20682;-67
2023/10/31 07:45:28;;;;;;;2.73;2.57;;;;;;;15.27;100.00;99543.69;5110840;28;20226;-67
2023/10/31 07:47:56;;;;;;;2.50;2.40;;;;;;;15.52;100.00;99533.88;5112265;28;20271;-66
2023/10/31 07:50:22;;;;;;;3.07;2.87;;;;;;;15.83;100.00;99537.56;5112733;28;20613;-67
2023/10/31 07:52:49;;;;;;;2.73;2.60;;;;;;;16.04;100.00;99536.50;5112897;28;20191;-67
2023/10/31 07:55:16;;;;;;;2.87;2.77;;;;;;;16.27;100.00;99542.19;5113539;28;20619;-67
2023/10/31 07:57:42;;;;;;;3.33;3.03;;;;;;;16.45;99.89;99537.81;5112860;28;20203;-67
2023/10/31 08:00:11;;;;;;;4.80;2.10;;;;;;;16.60;98.84;99531.03;5113437;27;20742;-67
2023/10/31 08:02:38;;;;;;;2.60;2.47;;;;;;;16.80;98.32;99523.06;5115134;27;20717;-67
2023/10/31 08:05:09;;;;;;;2.40;2.30;;;;;;;17.04;97.14;99526.06;5111280;28;20286;-66
2023/10/31 08:07:36;;;;;;;2.17;2.03;;;;;;;17.21;96.05;99513.88;5111875;28;20260;-67
2023/10/31 08:10:03;;;;;;;9.17;2.80;;;;;;;17.37;94.78;99511.25;5111866;28;20283;-66
2023/10/31 08:12:30;;;;;;;2.33;2.23;;;;;;;17.57;94.30;99505.81;5112827;27;20218;-66
2023/10/31 08:14:58;;;;;;;2.97;2.67;;;;;;;17.67;93.18;99512.13;5113398;28;20557;-64
2023/10/31 08:17:26;;;;;;;2.33;2.23;;;;;;;17.81;93.04;99512.19;5113732;27;20198;-67
2023/10/31 08:19:52;;;;;;;7.77;2.57;;;;;;;18.01;91.69;99510.19;5113720;28;20212;-67
2023/10/31 08:22:20;;;;;;;2.63;2.43;;;;;;;18.15;90.72;99502.44;5113938;28;20267;-67
2023/10/31 08:24:48;;;;;;;1.77;1.77;;;;;;;18.25;90.59;99503.56;5113917;27;20198;-67
2023/10/31 08:27:14;;;;;;;1.67;1.67;;;;;;;18.31;90.27;99508.38;5113560;28;20293;-67
2023/10/31 08:29:41;;;;;;;2.20;2.10;;;;;;;18.41;90.13;99504.31;5113664;28;20735;-67
2023/10/31 08:32:08;;;;;;;1.90;1.80;;;;;;;18.52;90.69;99499.31;5112237;28;20268;-67
2023/10/31 08:34:34;;;;;;;1.77;1.77;;;;;;;18.66;87.88;99499.31;5112507;28;20206;-67
2023/10/31 08:37:01;;;;;;;2.20;2.10;;;;;;;18.69;87.47;99493.94;5113726;28;20210;-67
2023/10/31 08:39:30;;;;;;;2.47;2.37;;;;;;;18.83;87.85;99500.88;5114068;28;20205;-67
2023/10/31 08:41:59;;;;;;;1.67;1.67;;;;;;;18.93;87.02;99499.38;5113439;28;20586;-67
2023/10/31 08:44:26;;;;;;;2.00;1.90;;;;;;;19.07;86.67;99503.66;5112451;28;20298;-67
2023/10/31 08:46:53;;;;;;;5.60;1.57;;;;;;;19.05;85.24;99505.53;5112167;28;20614;-68
2023/10/31 08:49:19;;;;;;;2.40;2.30;;;;;;;19.07;85.31;99498.47;5112867;28;20503;-67
2023/10/31 08:51:46;;;;;;;2.60;2.07;;;;;;;19.16;84.92;99493.53;5111844;27;20201;-67
2023/10/31 08:54:13;;;;;;;2.57;2.37;;;;;;;19.24;84.89;99487.84;5113194;27;20192;-67
2023/10/31 08:56:41;;;;;;;2.40;2.30;;;;;;;19.36;84.12;99479.25;5112912;28;20210;-68
2023/10/31 08:59:08;;;;;;;2.03;1.90;;;;;;;19.37;83.91;99473.97;5112977;28;20655;-65
2023/10/31 09:01:34;;;;;;;2.33;2.23;;;;;;;19.38;84.53;99461.81;5112954;28;20213;-66
2023/10/31 09:04:01;;;;;;;1.60;1.60;;;;;;;19.54;83.68;99466.88;5110823;28;20716;-66
2023/10/31 09:06:28;;;;;;;2.57;2.47;;;;;;;19.60;84.09;99464.69;5111621;28;20233;-66
2023/10/31 09:08:55;;;;;;;1.87;1.77;;;;;;;19.74;84.29;99449.00;5111612;28;20213;-67
2023/10/31 09:11:21;;;;;;;2.97;2.87;;;;;;;19.85;82.07;99443.91;5108490;28;20206;-69
2023/10/31 09:13:49;;;;;;;3.93;3.20;;;;;;;19.97;81.58;99441.44;5110718;28;20638;-69
2023/10/31 09:16:16;;;;;;;2.37;2.27;;;;;;;20.02;81.29;99432.38;5112081;28;20644;-67
2023/10/31 09:18:43;;;;;;;2.17;2.07;;;;;;;20.19;81.76;99426.00;5112714;28;20609;-70
2023/10/31 09:21:10;;;;;;;2.60;2.50;;;;;;;20.31;80.54;99427.78;5113892;28;20686;-68
2023/10/31 09:23:37;;;;;;;2.03;1.87;;;;;;;20.36;78.99;99410.06;5111604;28;20226;-68
2023/10/31 09:26:04;;;;;;;2.97;2.77;;;;;;;20.44;78.95;99407.78;5108842;28;20237;-67
2023/10/31 09:28:31;;;;;;;2.20;2.10;;;;;;;20.58;78.22;99399.78;5108953;28;20206;-67
2023/10/31 09:30:59;;;;;;;2.13;2.03;;;;;;;20.64;78.24;99402.00;5110887;28;20210;-66
2023/10/31 09:33:26;;;;;;;1.90;1.80;;;;;;;20.77;78.29;99397.56;5111398;28;20289;-67
2023/10/31 09:35:53;;;;;;;2.60;2.40;;;;;;;20.90;77.85;99392.31;5112408;28;20674;-67
2023/10/31 09:38:19;;;;;;;2.77;2.27;;;;;;;20.72;76.15;99391.84;5112458;28;20236;-67
2023/10/31 09:40:46;;;;;;;2.50;1.83;;;;;;;20.81;77.21;99388.56;5112056;27;20670;-67
2023/10/31 09:43:13;;;;;;;1.43;1.43;;;;;;;20.98;76.51;99381.28;5112409;28;20271;-65
2023/10/31 09:45:41;;;;;;;1.90;1.80;;;;;;;20.99;75.66;99373.38;5113032;28;20206;-66
2023/10/31 09:48:10;;;;;;;1.00;1.00;;;;;;;21.08;73.26;99371.88;5113460;28;20259;-66
2023/10/31 09:50:38;;;;;;;2.40;1.80;;;;;;;21.19;74.43;99359.75;5110425;28;20727;-68
2023/10/31 09:53:07;;;;;;;1.40;1.30;;;;;;;21.30;73.86;99361.53;5112954;28;20198;-67
2023/10/31 09:55:34;;;;;;;1.10;1.10;;;;;;;21.33;73.10;99350.88;5113198;28;20290;-67
2023/10/31 09:58:01;;;;;;;2.23;2.07;;;;;;;21.44;73.32;99337.88;5112745;28;20247;-67
2023/10/31 10:00:28;;;;;;;1.33;1.33;;;;;;;21.51;73.09;99335.63;5112814;28;20195;-68
2023/10/31 10:02:56;;;;;;;1.70;1.60;;;;;;;21.54;70.70;99328.41;5112626;28;20222;-67
2023/10/31 10:05:24;;;;;;;4.57;2.10;;;;;;;21.59;71.71;99328.88;5112433;28;20234;-67
2023/10/31 10:07:51;;;;;;;2.03;1.93;;;;;;;21.68;71.44;99324.75;5112591;28;20626;-67
2023/10/31 10:10:18;;;;;;;2.20;1.60;;;;;;;21.76;70.22;99315.38;5112391;28;20222;-68
2023/10/31 10:12:46;;;;;;;1.70;1.60;;;;;;;21.76;70.72;99310.16;5113120;28;20231;-67
2023/10/31 10:15:13;;;;;;;4.70;2.20;;;;;;;21.87;71.07;99299.69;5112624;28;20224;-68
2023/10/31 10:17:40;;;;;;;1.13;1.13;;;;;;;21.89;67.39;99299.63;5112695;28;20706;-68
2023/10/31 10:20:09;;;;;;;1.37;1.33;;;;;;;21.77;68.60;99270.06;5112575;28;20191;-67
2023/10/31 10:22:39;;;;;;;2.70;1.10;;;;;;;22.02;67.21;99291.66;5112440;28;20290;-67
2023/10/31 10:25:07;;;;;;;1.40;1.30;;;;;;;22.09;66.30;99287.59;5112168;28;20281;-67
2023/10/31 10:27:35;;;;;;;2.50;1.40;;;;;;;22.14;66.24;99285.44;5111266;28;20195;-67
2023/10/31 10:30:02;;;;;;;1.27;1.27;;;;;;;22.13;66.14;99289.03;5111149;28;20205;-67
2023/10/31 10:32:28;;;;;;;1.37;1.33;;;;;;;22.22;66.43;99288.31;5109964;28;20199;-67
2023/10/31 10:34:56;;;;;;;1.57;1.50;;;;;;;22.30;66.37;99281.50;5109848;28;20205;-67
2023/10/31 10:37:23;;;;;;;1.80;1.70;;;;;;;22.43;67.87;99282.19;5110657;28;20305;-67
2023/10/31 10:39:55;;;;;;;1.80;1.60;;;;;;;22.48;65.33;99284.44;5110106;28;20206;-67
2023/10/31 10:42:31;;;;;;;2.13;2.03;;;;;;;22.48;63.43;99280.03;5108759;28;20647;-67
2023/10/31 10:44:59;;;;;;;2.23;1.33;;;;;;;;;;5110842;28;20624;-68
2023/10/31 10:47:26;;;;;;;1.67;1.57;;;;;;;22.42;65.04;99264.03;5111652;28;20194;-67
2023/10/31 10:49:59;;;;;;;1.70;1.60;;;;;;;22.46;64.62;99270.66;5111402;28;20195;-67
2023/10/31 10:52:33;;;;;;;1.33;1.20;;;;;;;22.53;64.09;99261.34;5110962;28;20203;-67
2023/10/31 10:55:07;;;;;;;1.47;1.43;;;;;;;22.62;64.78;99255.38;5110955;28;20569;-67
2023/10/31 10:57:39;;;;;;;1.30;1.20;;;;;;;22.73;63.92;99259.75;5112675;27;20202;-67
2023/10/31 11:00:12;;;;;;;1.97;1.33;;;;;;;22.74;62.69;99254.44;5111385;28;20258;-67
2023/10/31 11:02:40;;;;;;;4.57;1.17;;;;;;;22.77;62.74;99248.94;5112761;28;20690;-67
2023/10/31 11:05:08;;;;;;;1.30;1.30;;;;;;;22.72;61.80;99234.56;5111935;28;20198;-67
2023/10/31 11:07:35;;;;;;;1.07;1.07;;;;;;;22.81;62.99;99229.41;5111375;28;20735;-67
2023/10/31 11:10:04;;;;;;;1.40;1.40;;;;;;;22.80;63.03;99225.16;5111372;28;20226;-67
2023/10/31 11:12:31;;;;;;;1.70;1.30;;;;;;;22.82;63.21;99225.03;5111761;28;20202;-66
2023/10/31 11:15:00;;;;;;;1.00;1.00;;;;;;;22.78;62.25;99224.44;5111355;28;20191;-67
2023/10/31 11:17:29;;;;;;;1.30;1.30;;;;;;;22.79;62.52;99217.44;5111496;28;20226;-67
2023/10/31 11:19:57;;;;;;;1.00;1.00;;;;;;;22.80;62.90;99222.56;5110499;28;20248;-67
2023/10/31 11:22:24;;;;;;;4.20;1.63;;;;;;;22.90;63.80;99213.00;5109785;28;20207;-67
2023/10/31 11:24:51;;;;;;;1.70;1.60;;;;;;;22.97;62.05;99213.31;5110660;28;20226;-67
2023/10/31 11:27:19;;;;;;;1.03;1.03;;;;;;;23.00;61.82;99210.44;5110631;28;20202;-67
2023/10/31 11:29:48;;;;;;;1.43;1.40;;;;;;;22.96;61.81;99199.41;5108411;28;20635;-67
2023/10/31 11:32:15;;;;;;;1.33;1.27;;;;;;;23.01;62.16;99193.75;5109991;28;20251;-66